sensor_id;sensor_type;location;lat;lon;timestamp;pressure;altitude;pressure_sealevel;temperature;humidity
13314;BME280;6725;48.112;11.604;2023-03-15T00:00:52;94261.69;;;3.93;100.00
13314;BME280;6725;48.112;11.604;2023-03-15T00:03:18;94260.50;;;3.97;100.00
13314;BME280;6725;48.112;11.604;2023-03-15T00:05:45;94261.28;;;4.01;100.00
13314;BME280;6725;48.112;11.604;2023-03-15T00:08:11;94258.19;;;4.03;100.00
13314;BME280;6725;48.112;11.604;2023-03-15T00:10:41;94253.94;;;4.09;100.00
13314;BME280;6725;48.112;11.604;2023-03-15T00:13:07;94257.41;;;4.09;100.00
13314;BME280;6725;48.112;11.604;2023-03-15T00:15:33;94250.84;;;4.10;100.00
13314;BME280;6725;48.112;11.604;2023-03-15T00:17:58;94252.00;;;4.13;100.00
13314;BME280;6725;48.112;11.604;2023-03-15T00:20:27;94251.59;;;4.14;100.00
13314;BME280;6725;48.112;11.604;2023-03-15T00:22:53;94249.66;;;4.18;100.00
13314;BME280;6725;48.112;11.604;2023-03-15T00:25:18;94251.97;;;4.20;100.00
13314;BME280;6725;48.112;11.604;2023-03-15T00:27:43;94253.91;;;4.23;100.00
13314;BME280;6725;48.112;11.604;2023-03-15T00:30:09;94242.69;;;4.24;100.00
13314;BME280;6725;48.112;11.604;2023-03-15T00:32:35;94235.75;;;4.27;100.00
13314;BME280;6725;48.112;11.604;2023-03-15T00:35:00;94219.53;;;4.27;100.00
13314;BME280;6725;48.112;11.604;2023-03-15T00:37:26;94190.22;;;4.18;100.00
13314;BME280;6725;48.112;11.604;2023-03-15T00:39:54;94157.09;;;4.11;100.00
13314;BME280;6725;48.112;11.604;2023-03-15T00:42:20;94124.72;;;4.04;100.00
13314;BME280;6725;48.112;11.604;2023-03-15T00:44:46;94029.06;;;3.98;100.00
13314;BME280;6725;48.112;11.604;2023-03-15T00:47:13;93984.38;;;3.90;100.00
13314;BME280;6725;48.112;11.604;2023-03-15T00:49:39;93941.59;;;3.85;100.00
13314;BME280;6725;48.112;11.604;2023-03-15T00:52:05;93916.97;;;3.76;100.00
13314;BME280;6725;48.112;11.604;2023-03-15T00:54:31;93887.31;;;3.69;100.00
13314;BME280;6725;48.112;11.604;2023-03-15T00:57:00;93853.78;;;3.70;100.00
13314;BME280;6725;48.112;11.604;2023-03-15T00:59:28;93838.31;;;3.74;100.00
13314;BME280;6725;48.112;11.604;2023-03-15T01:01:54;93819.41;;;3.77;100.00
13314;BME280;6725;48.112;11.604;2023-03-15T01:04:19;93816.44;;;3.65;100.00
13314;BME280;6725;48.112;11.604;2023-03-15T01:06:45;93804.34;;;3.28;100.00
13314;BME280;6725;48.112;11.604;2023-03-15T01:09:10;93818.47;;;2.88;100.00
13314;BME280;6725;48.112;11.604;2023-03-15T01:11:36;93809.81;;;2.42;100.00
13314;BME280;6725;48.112;11.604;2023-03-15T01:14:01;93785.63;;;2.28;100.00
13314;BME280;6725;48.112;11.604;2023-03-15T01:16:31;93750.66;;;2.21;100.00
13314;BME280;6725;48.112;11.604;2023-03-15T01:18:57;93724.16;;;2.16;100.00
13314;BME280;6725;48.112;11.604;2023-03-15T01:21:22;93705.34;;;2.09;100.00
13314;BME280;6725;48.112;11.604;2023-03-15T01:23:49;93668.78;;;2.08;100.00
13314;BME280;6725;48.112;11.604;2023-03-15T01:26:15;93655.75;;;2.03;100.00
13314;BME280;6725;48.112;11.604;2023-03-15T01:28:41;93646.50;;;2.04;100.00
13314;BME280;6725;48.112;11.604;2023-03-15T01:31:16;93627.28;;;2.06;100.00
13314;BME280;6725;48.112;11.604;2023-03-15T01:33:41;93613.44;;;2.07;100.00
13314;BME280;6725;48.112;11.604;2023-03-15T01:36:07;93567.28;;;2.09;100.00
13314;BME280;6725;48.112;11.604;2023-03-15T01:38:33;93529.56;;;2.12;100.00
13314;BME280;6725;48.112;11.604;2023-03-15T01:40:59;93523.41;;;2.15;100.00
13314;BME280;6725;48.112;11.604;2023-03-15T01:43:26;93513.81;;;2.14;100.00
13314;BME280;6725;48.112;11.604;2023-03-15T01:48:33;93595.72;;;2.10;100.00
13314;BME280;6725;48.112;11.604;2023-03-15T01:51:03;93581.06;;;2.18;100.00
13314;BME280;6725;48.112;11.604;2023-03-15T01:53:31;93595.72;;;2.13;100.00
13314;BME280;6725;48.112;11.604;2023-03-15T01:55:58;93591.09;;;2.17;100.00
13314;BME280;6725;48.112;11.604;2023-03-15T01:58:24;93592.59;;;2.18;100.00
13314;BME280;6725;48.112;11.604;2023-03-15T02:00:51;93591.81;;;2.18;100.00
13314;BME280;6725;48.112;11.604;2023-03-15T02:03:21;93592.59;;;2.18;100.00
13314;BME280;6725;48.112;11.604;2023-03-15T02:06:00;93597.94;;;2.25;100.00
13314;BME280;6725;48.112;11.604;2023-03-15T02:08:31;93607.16;;;2.31;100.00
13314;BME280;6725;48.112;11.604;2023-03-15T02:10:59;93601.38;;;2.29;100.00
13314;BME280;6725;48.112;11.604;2023-03-15T02:13:27;93605.97;;;2.32;100.00
13314;BME280;6725;48.112;11.604;2023-03-15T02:15:53;93597.91;;;2.32;100.00
13314;BME280;6725;48.112;11.604;2023-03-15T02:18:20;93581.69;;;2.39;100.00
13314;BME280;6725;48.112;11.604;2023-03-15T02:21:07;93569.31;;;2.45;100.00
13314;BME280;6725;48.112;11.604;2023-03-15T02:23:34;93588.59;;;2.40;100.00
13314;BME280;6725;48.112;11.604;2023-03-15T02:26:33;93579.75;;;2.43;100.00
13314;BME280;6725;48.112;11.604;2023-03-15T02:29:01;93589.28;;;2.51;100.00
13314;BME280;6725;48.112;11.604;2023-03-15T02:31:27;93596.22;;;2.52;100.00
13314;BME280;6725;48.112;11.604;2023-03-15T02:33:53;93606.97;;;2.56;100.00
13314;BME280;6725;48.112;11.604;2023-03-15T02:36:23;93612.34;;;2.56;100.00
13314;BME280;6725;48.112;11.604;2023-03-15T02:38:50;93612.75;;;2.54;100.00
13314;BME280;6725;48.112;11.604;2023-03-15T02:41:36;93623.88;;;2.60;100.00
13314;BME280;6725;48.112;11.604;2023-03-15T02:44:06;93630.09;;;2.53;100.00
13314;BME280;6725;48.112;11.604;2023-03-15T02:46:33;93635.44;;;2.57;100.00
13314;BME280;6725;48.112;11.604;2023-03-15T02:48:59;93639.28;;;2.56;100.00
13314;BME280;6725;48.112;11.604;2023-03-15T02:51:28;93639.31;;;2.52;100.00
13314;BME280;6725;48.112;11.604;2023-03-15T02:53:53;93641.63;;;2.50;100.00
13314;BME280;6725;48.112;11.604;2023-03-15T02:56:19;93649.31;;;2.52;100.00
13314;BME280;6725;48.112;11.604;2023-03-15T02:58:44;93657.38;;;2.55;100.00
13314;BME280;6725;48.112;11.604;2023-03-15T03:01:14;93670.84;;;2.59;100.00
13314;BME280;6725;48.112;11.604;2023-03-15T03:03:41;93675.38;;;2.69;100.00
13314;BME280;6725;48.112;11.604;2023-03-15T03:06:08;93699.59;;;2.72;100.00
13314;BME280;6725;48.112;11.604;2023-03-15T03:08:33;93723.94;;;2.62;100.00
13314;BME280;6725;48.112;11.604;2023-03-15T03:10:58;93730.09;;;2.59;100.00
13314;BME280;6725;48.112;11.604;2023-03-15T03:13:24;93733.94;;;2.61;100.00
13314;BME280;6725;48.112;11.604;2023-03-15T03:15:49;93753.59;;;2.55;100.00
13314;BME280;6725;48.112;11.604;2023-03-15T03:18:23;93774.41;;;2.47;100.00
13314;BME280;6725;48.112;11.604;2023-03-15T03:20:49;93785.94;;;2.48;100.00
13314;BME280;6725;48.112;11.604;2023-03-15T03:23:14;93797.13;;;2.39;100.00
13314;BME280;6725;48.112;11.604;2023-03-15T03:25:39;93816.03;;;2.25;100.00
13314;BME280;6725;48.112;11.604;2023-03-15T03:28:05;93820.28;;;2.16;100.00
13314;BME280;6725;48.112;11.604;2023-03-15T03:30:30;93839.53;;;2.07;100.00
13314;BME280;6725;48.112;11.604;2023-03-15T03:32:55;93840.31;;;2.01;100.00
13314;BME280;6725;48.112;11.604;2023-03-15T03:35:21;93858.00;;;1.91;100.00
13314;BME280;6725;48.112;11.604;2023-03-15T03:37:46;93878.38;;;1.85;100.00
13314;BME280;6725;48.112;11.604;2023-03-15T03:40:12;93890.66;;;1.86;100.00
13314;BME280;6725;48.112;11.604;2023-03-15T03:42:37;93888.75;;;1.83;100.00
13314;BME280;6725;48.112;11.604;2023-03-15T03:45:03;93899.53;;;1.83;100.00
13314;BME280;6725;48.112;11.604;2023-03-15T03:47:28;93901.06;;;1.77;100.00
13314;BME280;6725;48.112;11.604;2023-03-15T03:49:54;93912.97;;;1.76;100.00
13314;BME280;6725;48.112;11.604;2023-03-15T03:52:19;93917.59;;;1.72;100.00
13314;BME280;6725;48.112;11.604;2023-03-15T03:54:45;93923.75;;;1.76;100.00
13314;BME280;6725;48.112;11.604;2023-03-15T03:57:10;93936.78;;;1.74;100.00
13314;BME280;6725;48.112;11.604;2023-03-15T03:59:35;93949.09;;;1.82;100.00
13314;BME280;6725;48.112;11.604;2023-03-15T04:02:01;93951.78;;;1.82;100.00
13314;BME280;6725;48.112;11.604;2023-03-15T04:04:26;93964.88;;;1.80;100.00
13314;BME280;6725;48.112;11.604;2023-03-15T04:06:54;93961.41;;;1.80;100.00
13314;BME280;6725;48.112;11.604;2023-03-15T04:09:19;93964.09;;;1.80;100.00
13314;BME280;6725;48.112;11.604;2023-03-15T04:11:46;93979.44;;;1.79;100.00
13314;BME280;6725;48.112;11.604;2023-03-15T04:14:12;93994.06;;;1.78;100.00
13314;BME280;6725;48.112;11.604;2023-03-15T04:16:39;94005.19;;;1.73;100.00
13314;BME280;6725;48.112;11.604;2023-03-15T04:19:05;94000.97;;;1.72;100.00
13314;BME280;6725;48.112;11.604;2023-03-15T04:21:31;94026.69;;;1.70;100.00
13314;BME280;6725;48.112;11.604;2023-03-15T04:24:00;94027.88;;;1.65;100.00
13314;BME280;6725;48.112;11.604;2023-03-15T04:26:27;94032.09;;;1.66;100.00
13314;BME280;6725;48.112;11.604;2023-03-15T04:28:53;94033.25;;;1.69;100.00
13314;BME280;6725;48.112;11.604;2023-03-15T04:31:19;94041.72;;;1.71;100.00
13314;BME280;6725;48.112;11.604;2023-03-15T04:33:44;94056.28;;;1.66;100.00
13314;BME280;6725;48.112;11.604;2023-03-15T04:36:10;94053.97;;;1.68;100.00
13314;BME280;6725;48.112;11.604;2023-03-15T04:38:46;94063.22;;;1.71;100.00
13314;BME280;6725;48.112;11.604;2023-03-15T04:41:13;94079.38;;;1.71;100.00
13314;BME280;6725;48.112;11.604;2023-03-15T04:43:39;94079.00;;;1.72;100.00
13314;BME280;6725;48.112;11.604;2023-03-15T04:46:04;94080.88;;;1.68;100.00
13314;BME280;6725;48.112;11.604;2023-03-15T04:48:30;94096.22;;;1.61;100.00
13314;BME280;6725;48.112;11.604;2023-03-15T04:50:55;94103.53;;;1.60;100.00
13314;BME280;6725;48.112;11.604;2023-03-15T04:53:21;94107.03;;;1.68;100.00
13314;BME280;6725;48.112;11.604;2023-03-15T04:55:46;94108.56;;;1.69;100.00
13314;BME280;6725;48.112;11.604;2023-03-15T04:58:12;94117.00;;;1.67;100.00
13314;BME280;6725;48.112;11.604;2023-03-15T05:00:37;94120.09;;;1.69;100.00
13314;BME280;6725;48.112;11.604;2023-03-15T05:03:02;94117.78;;;1.71;100.00
13314;BME280;6725;48.112;11.604;2023-03-15T05:05:28;94140.84;;;1.65;100.00
13314;BME280;6725;48.112;11.604;2023-03-15T05:07:53;94145.03;;;1.59;100.00
13314;BME280;6725;48.112;11.604;2023-03-15T05:10:19;94161.47;;;1.47;100.00
13314;BME280;6725;48.112;11.604;2023-03-15T05:12:44;94166.06;;;1.43;100.00
13314;BME280;6725;48.112;11.604;2023-03-15T05:15:10;94172.94;;;1.41;100.00
13314;BME280;6725;48.112;11.604;2023-03-15T05:17:36;94174.88;;;1.40;100.00
13314;BME280;6725;48.112;11.604;2023-03-15T05:20:01;94184.44;;;1.34;100.00
13314;BME280;6725;48.112;11.604;2023-03-15T05:22:32;94198.94;;;1.23;100.00
13314;BME280;6725;48.112;11.604;2023-03-15T05:24:57;94198.25;;;1.29;100.00
13314;BME280;6725;48.112;11.604;2023-03-15T05:27:22;94194.03;;;1.32;100.00
13314;BME280;6725;48.112;11.604;2023-03-15T05:29:48;94198.25;;;1.29;100.00
13314;BME280;6725;48.112;11.604;2023-03-15T05:32:15;94209.78;;;1.33;100.00
13314;BME280;6725;48.112;11.604;2023-03-15T05:34:40;94212.09;;;1.35;100.00
13314;BME280;6725;48.112;11.604;2023-03-15T05:37:06;94222.13;;;1.38;100.00
13314;BME280;6725;48.112;11.604;2023-03-15T05:39:32;94233.63;;;1.38;100.00
13314;BME280;6725;48.112;11.604;2023-03-15T05:41:59;94224.03;;;1.41;100.00
13314;BME280;6725;48.112;11.604;2023-03-15T05:44:24;94225.91;;;1.33;100.00
13314;BME280;6725;48.112;11.604;2023-03-15T05:46:49;94237.47;;;1.34;100.00
13314;BME280;6725;48.112;11.604;2023-03-15T05:49:15;94237.47;;;1.37;100.00
13314;BME280;6725;48.112;11.604;2023-03-15T05:51:40;94236.38;;;1.45;100.00
13314;BME280;6725;48.112;11.604;2023-03-15T05:54:05;94240.97;;;1.41;100.00
13314;BME280;6725;48.112;11.604;2023-03-15T05:56:31;94255.97;;;1.46;100.00
13314;BME280;6725;48.112;11.604;2023-03-15T05:58:56;94265.56;;;1.43;100.00
13314;BME280;6725;48.112;11.604;2023-03-15T06:01:22;94265.94;;;1.45;100.00
13314;BME280;6725;48.112;11.604;2023-03-15T06:03:47;94264.06;;;1.49;100.00
13314;BME280;6725;48.112;11.604;2023-03-15T06:06:12;94273.69;;;1.50;100.00
13314;BME280;6725;48.112;11.604;2023-03-15T06:08:38;94291.25;;;1.41;100.00
13314;BME280;6725;48.112;11.604;2023-03-15T06:11:03;94290.16;;;1.45;100.00
13314;BME280;6725;48.112;11.604;2023-03-15T06:13:28;94287.03;;;1.40;100.00
13314;BME280;6725;48.112;11.604;2023-03-15T06:15:54;94295.53;;;1.45;100.00
13314;BME280;6725;48.112;11.604;2023-03-15T06:18:19;94299.00;;;1.46;100.00
13314;BME280;6725;48.112;11.604;2023-03-15T06:20:45;94316.66;;;1.43;100.00
13314;BME280;6725;48.112;11.604;2023-03-15T06:23:10;94314.41;;;1.52;100.00
13314;BME280;6725;48.112;11.604;2023-03-15T06:25:35;94326.78;;;1.60;100.00
13314;BME280;6725;48.112;11.604;2023-03-15T06:28:01;94333.66;;;1.54;100.00
13314;BME280;6725;48.112;11.604;2023-03-15T06:30:27;94342.91;;;1.60;100.00
13314;BME280;6725;48.112;11.604;2023-03-15T06:32:53;94344.47;;;1.61;100.00
13314;BME280;6725;48.112;11.604;2023-03-15T06:35:19;94336.28;;;1.98;100.00
13314;BME280;6725;48.112;11.604;2023-03-15T06:37:45;94300.25;;;3.19;100.00
13314;BME280;6725;48.112;11.604;2023-03-15T06:40:11;94300.66;;;3.71;100.00
13314;BME280;6725;48.112;11.604;2023-03-15T06:42:37;94340.75;;;3.58;100.00
13314;BME280;6725;48.112;11.604;2023-03-15T06:45:04;94369.22;;;3.38;100.00
13314;BME280;6725;48.112;11.604;2023-03-15T06:47:30;94363.81;;;4.47;100.00
13314;BME280;6725;48.112;11.604;2023-03-15T06:49:55;94428.91;;;5.26;100.00
13314;BME280;6725;48.112;11.604;2023-03-15T06:52:21;94572.31;;;5.33;100.00
13314;BME280;6725;48.112;11.604;2023-03-15T06:54:46;94681.69;;;5.95;100.00
13314;BME280;6725;48.112;11.604;2023-03-15T06:57:11;94810.16;;;6.46;100.00
13314;BME280;6725;48.112;11.604;2023-03-15T06:59:37;94949.19;;;6.40;100.00
13314;BME280;6725;48.112;11.604;2023-03-15T07:02:02;95052.94;;;6.09;100.00
13314;BME280;6725;48.112;11.604;2023-03-15T07:04:27;95104.06;;;6.10;100.00
13314;BME280;6725;48.112;11.604;2023-03-15T07:06:53;95138.97;;;5.58;100.00
13314;BME280;6725;48.112;11.604;2023-03-15T07:09:19;95154.84;;;6.27;100.00
13314;BME280;6725;48.112;11.604;2023-03-15T07:11:44;95195.75;;;6.94;100.00
13314;BME280;6725;48.112;11.604;2023-03-15T07:14:09;95233.81;;;8.41;100.00
13314;BME280;6725;48.112;11.604;2023-03-15T07:16:35;95253.63;;;8.38;100.00
13314;BME280;6725;48.112;11.604;2023-03-15T07:19:00;95268.53;;;9.16;100.00
13314;BME280;6725;48.112;11.604;2023-03-15T07:21:26;95281.19;;;9.47;100.00
13314;BME280;6725;48.112;11.604;2023-03-15T07:23:52;95279.44;;;10.29;100.00
13314;BME280;6725;48.112;11.604;2023-03-15T07:26:17;95293.56;;;10.21;100.00
13314;BME280;6725;48.112;11.604;2023-03-15T07:28:43;95304.78;;;9.78;100.00
13314;BME280;6725;48.112;11.604;2023-03-15T07:31:09;95314.94;;;10.70;100.00
13314;BME280;6725;48.112;11.604;2023-03-15T07:33:36;95317.94;;;11.46;100.00
13314;BME280;6725;48.112;11.604;2023-03-15T07:36:02;95321.53;;;11.09;100.00
13314;BME280;6725;48.112;11.604;2023-03-15T07:38:29;95324.13;;;11.20;100.00
13314;BME280;6725;48.112;11.604;2023-03-15T07:40:55;95325.59;;;11.61;100.00
13314;BME280;6725;48.112;11.604;2023-03-15T07:43:21;95337.53;;;12.01;100.00
13314;BME280;6725;48.112;11.604;2023-03-15T07:45:47;95332.63;;;12.65;100.00
13314;BME280;6725;48.112;11.604;2023-03-15T07:48:12;95341.94;;;13.72;100.00
13314;BME280;6725;48.112;11.604;2023-03-15T07:50:38;95336.03;;;13.15;100.00
13314;BME280;6725;48.112;11.604;2023-03-15T07:53:04;95348.06;;;13.21;100.00
13314;BME280;6725;48.112;11.604;2023-03-15T07:55:34;95337.66;;;13.32;100.00
13314;BME280;6725;48.112;11.604;2023-03-15T07:58:00;95344.84;;;13.26;100.00
13314;BME280;6725;48.112;11.604;2023-03-15T08:00:26;95341.72;;;13.63;100.00
13314;BME280;6725;48.112;11.604;2023-03-15T08:02:51;95339.03;;;13.79;100.00
13314;BME280;6725;48.112;11.604;2023-03-15T08:05:17;95338.28;;;13.59;100.00
13314;BME280;6725;48.112;11.604;2023-03-15T08:07:47;95334.25;;;13.99;100.00
13314;BME280;6725;48.112;11.604;2023-03-15T08:10:14;95325.41;;;14.75;100.00
13314;BME280;6725;48.112;11.604;2023-03-15T08:12:40;95337.38;;;14.53;100.00
13314;BME280;6725;48.112;11.604;2023-03-15T08:15:11;95343.38;;;15.24;95.58
13314;BME280;6725;48.112;11.604;2023-03-15T08:17:38;95334.22;;;15.43;92.46
13314;BME280;6725;48.112;11.604;2023-03-15T08:20:04;95337.06;;;14.95;95.21
13314;BME280;6725;48.112;11.604;2023-03-15T08:22:30;95338.63;;;14.96;86.83
13314;BME280;6725;48.112;11.604;2023-03-15T08:24:55;95336.41;;;14.91;83.39
13314;BME280;6725;48.112;11.604;2023-03-15T08:27:23;95339.13;;;15.64;79.20
13314;BME280;6725;48.112;11.604;2023-03-15T08:29:48;95341.00;;;14.94;83.70
13314;BME280;6725;48.112;11.604;2023-03-15T08:32:15;95349.13;;;14.53;79.70
13314;BME280;6725;48.112;11.604;2023-03-15T08:34:41;95347.06;;;14.73;88.36
13314;BME280;6725;48.112;11.604;2023-03-15T08:37:06;95342.25;;;14.45;87.45
13314;BME280;6725;48.112;11.604;2023-03-15T08:39:33;95343.28;;;13.64;86.25
13314;BME280;6725;48.112;11.604;2023-03-15T08:42:00;95348.06;;;13.80;84.62
13314;BME280;6725;48.112;11.604;2023-03-15T08:44:25;95347.78;;;13.35;83.70
13314;BME280;6725;48.112;11.604;2023-03-15T08:46:51;95342.97;;;13.19;89.85
13314;BME280;6725;48.112;11.604;2023-03-15T08:49:16;95341.63;;;14.70;83.05
13314;BME280;6725;48.112;11.604;2023-03-15T08:51:41;95336.41;;;14.27;77.57
13314;BME280;6725;48.112;11.604;2023-03-15T08:54:07;95338.19;;;13.82;76.46
13314;BME280;6725;48.112;11.604;2023-03-15T08:56:34;95331.78;;;14.40;77.53
13314;BME280;6725;48.112;11.604;2023-03-15T08:59:00;95343.00;;;12.96;78.58
13314;BME280;6725;48.112;11.604;2023-03-15T09:01:25;95347.97;;;12.09;82.38
13314;BME280;6725;48.112;11.604;2023-03-15T09:03:50;95341.66;;;11.26;94.17
13314;BME280;6725;48.112;11.604;2023-03-15T09:06:16;95339.00;;;11.49;94.59
13314;BME280;6725;48.112;11.604;2023-03-15T09:08:41;95338.31;;;12.28;85.79
13314;BME280;6725;48.112;11.604;2023-03-15T09:11:06;95340.38;;;13.12;77.42
13314;BME280;6725;48.112;11.604;2023-03-15T09:13:32;95341.59;;;13.31;76.80
13314;BME280;6725;48.112;11.604;2023-03-15T09:15:57;95342.50;;;14.35;73.60
13314;BME280;6725;48.112;11.604;2023-03-15T09:18:23;95349.28;;;14.46;71.12
13314;BME280;6725;48.112;11.604;2023-03-15T09:20:49;95350.69;;;14.19;67.81
13314;BME280;6725;48.112;11.604;2023-03-15T09:23:14;95343.22;;;14.03;75.09
13314;BME280;6725;48.112;11.604;2023-03-15T09:25:39;95348.09;;;14.47;68.38
13314;BME280;6725;48.112;11.604;2023-03-15T09:28:07;95343.56;;;15.17;68.52
13314;BME280;6725;48.112;11.604;2023-03-15T09:30:34;95343.34;;;15.81;69.62
13314;BME280;6725;48.112;11.604;2023-03-15T09:33:00;95343.81;;;15.51;65.63
13314;BME280;6725;48.112;11.604;2023-03-15T09:35:25;95351.09;;;16.11;63.86
13314;BME280;6725;48.112;11.604;2023-03-15T09:37:51;95347.47;;;15.32;58.79
13314;BME280;6725;48.112;11.604;2023-03-15T09:46:09;95340.13;;;14.53;68.11
13314;BME280;6725;48.112;11.604;2023-03-15T09:48:43;95352.91;;;15.20;63.74
13314;BME280;6725;48.112;11.604;2023-03-15T09:51:23;95352.97;;;15.32;57.34
13314;BME280;6725;48.112;11.604;2023-03-15T09:53:56;95349.47;;;15.60;57.87
13314;BME280;6725;48.112;11.604;2023-03-15T09:58:58;95357.03;;;16.22;53.74
13314;BME280;6725;48.112;11.604;2023-03-15T10:01:37;95364.31;;;15.34;55.61
13314;BME280;6725;48.112;11.604;2023-03-15T10:04:26;95367.50;;;12.84;68.59
13314;BME280;6725;48.112;11.604;2023-03-15T10:06:54;95366.28;;;11.56;72.94
13314;BME280;6725;48.112;11.604;2023-03-15T10:09:22;95366.84;;;11.40;73.46
13314;BME280;6725;48.112;11.604;2023-03-15T10:12:08;95378.69;;;10.93;77.40
13314;BME280;6725;48.112;11.604;2023-03-15T10:17:14;95388.31;;;9.37;82.56
13314;BME280;6725;48.112;11.604;2023-03-15T10:24:44;95389.13;;;11.05;78.05
13314;BME280;6725;48.112;11.604;2023-03-15T10:27:19;95383.91;;;12.38;70.05
13314;BME280;6725;48.112;11.604;2023-03-15T10:29:46;95379.28;;;13.27;62.66
13314;BME280;6725;48.112;11.604;2023-03-15T10:32:17;95373.91;;;13.98;59.88
13314;BME280;6725;48.112;11.604;2023-03-15T10:34:47;95371.53;;;14.00;61.47
13314;BME280;6725;48.112;11.604;2023-03-15T10:37:13;95363.88;;;13.53;60.85
13314;BME280;6725;48.112;11.604;2023-03-15T10:39:39;95377.81;;;13.22;61.16
13314;BME280;6725;48.112;11.604;2023-03-15T10:42:30;95379.28;;;13.27;59.62
13314;BME280;6725;48.112;11.604;2023-03-15T10:44:56;95370.44;;;13.78;61.95
13314;BME280;6725;48.112;11.604;2023-03-15T10:47:24;95360.63;;;14.80;59.67
13314;BME280;6725;48.112;11.604;2023-03-15T10:49:55;95375.28;;;14.06;54.67
13314;BME280;6725;48.112;11.604;2023-03-15T10:52:37;95368.56;;;12.67;59.87
13314;BME280;6725;48.112;11.604;2023-03-15T10:55:11;95381.75;;;12.26;62.70
13314;BME280;6725;48.112;11.604;2023-03-15T10:57:41;95364.81;;;12.57;63.17
13314;BME280;6725;48.112;11.604;2023-03-15T11:00:25;95357.13;;;12.98;61.46
13314;BME280;6725;48.112;11.604;2023-03-15T11:03:03;95368.03;;;13.21;59.36
13314;BME280;6725;48.112;11.604;2023-03-15T11:05:45;95369.41;;;13.10;60.46
13314;BME280;6725;48.112;11.604;2023-03-15T11:08:16;95365.00;;;12.93;61.20
13314;BME280;6725;48.112;11.604;2023-03-15T11:10:44;95367.63;;;12.31;57.31
13314;BME280;6725;48.112;11.604;2023-03-15T11:13:13;95363.88;;;11.28;60.59
13314;BME280;6725;48.112;11.604;2023-03-15T11:15:49;95365.53;;;10.85;64.05
13314;BME280;6725;48.112;11.604;2023-03-15T11:18:23;95363.72;;;10.20;68.81
13314;BME280;6725;48.112;11.604;2023-03-15T11:20:50;95370.78;;;10.14;69.93
13314;BME280;6725;48.112;11.604;2023-03-15T11:23:26;95368.56;;;9.91;72.87
13314;BME280;6725;48.112;11.604;2023-03-15T11:25:53;95375.00;;;9.53;70.73
13314;BME280;6725;48.112;11.604;2023-03-15T11:28:22;95363.50;;;9.07;70.35
13314;BME280;6725;48.112;11.604;2023-03-15T11:30:48;95364.34;;;8.80;68.45
13314;BME280;6725;48.112;11.604;2023-03-15T11:35:58;95361.88;;;9.34;68.18
13314;BME280;6725;48.112;11.604;2023-03-15T11:38:32;95361.00;;;9.51;69.20
13314;BME280;6725;48.112;11.604;2023-03-15T11:41:01;95354.03;;;9.43;69.64
13314;BME280;6725;48.112;11.604;2023-03-15T11:44:14;95354.72;;;9.61;66.88
13314;BME280;6725;48.112;11.604;2023-03-15T11:46:48;95351.28;;;9.50;62.30
13314;BME280;6725;48.112;11.604;2023-03-15T11:49:23;95341.13;;;9.54;62.33
13314;BME280;6725;48.112;11.604;2023-03-15T11:51:54;95339.97;;;9.52;64.66
13314;BME280;6725;48.112;11.604;2023-03-15T11:54:21;95341.50;;;9.56;62.66
13314;BME280;6725;48.112;11.604;2023-03-15T11:56:56;95335.31;;;9.52;63.47
13314;BME280;6725;48.112;11.604;2023-03-15T11:59:33;95327.50;;;9.58;62.19
13314;BME280;6725;48.112;11.604;2023-03-15T12:07:02;95330.16;;;8.68;61.38
13314;BME280;6725;48.112;11.604;2023-03-15T12:11:59;95330.94;;;8.65;63.84
13314;BME280;6725;48.112;11.604;2023-03-15T12:14:27;95319.31;;;8.54;64.24
13314;BME280;6725;48.112;11.604;2023-03-15T12:19:57;95318.16;;;8.52;66.07
13314;BME280;6725;48.112;11.604;2023-03-15T12:22:25;95306.00;;;8.84;64.32
13314;BME280;6725;48.112;11.604;2023-03-15T12:24:57;95312.72;;;8.45;60.00
13314;BME280;6725;48.112;11.604;2023-03-15T12:27:29;95308.41;;;8.61;64.50
13314;BME280;6725;48.112;11.604;2023-03-15T12:30:00;95306.06;;;8.49;63.43
13314;BME280;6725;48.112;11.604;2023-03-15T12:32:26;95302.94;;;8.65;62.84
13314;BME280;6725;48.112;11.604;2023-03-15T12:35:06;95300.59;;;8.63;63.52
13314;BME280;6725;48.112;11.604;2023-03-15T12:37:46;95298.56;;;8.95;66.47
13314;BME280;6725;48.112;11.604;2023-03-15T12:47:44;95296.34;;;9.52;66.41
13314;BME280;6725;48.112;11.604;2023-03-15T12:50:47;95298.00;;;9.35;68.33
13314;BME280;6725;48.112;11.604;2023-03-15T12:58:46;95294.31;;;8.94;68.74
13314;BME280;6725;48.112;11.604;2023-03-15T13:01:15;95305.03;;;9.33;68.79
13314;BME280;6725;48.112;11.604;2023-03-15T13:03:41;95307.38;;;9.34;68.88
13314;BME280;6725;48.112;11.604;2023-03-15T13:06:21;95308.22;;;9.17;65.62
13314;BME280;6725;48.112;11.604;2023-03-15T13:12:05;95296.81;;;9.36;67.05
13314;BME280;6725;48.112;11.604;2023-03-15T13:14:50;95300.31;;;9.40;65.05
13314;BME280;6725;48.112;11.604;2023-03-15T13:20:39;95295.19;;;9.53;66.50
13314;BME280;6725;48.112;11.604;2023-03-15T13:23:20;95298.72;;;9.46;66.30
13314;BME280;6725;48.112;11.604;2023-03-15T13:26:16;95301.56;;;9.25;69.07
13314;BME280;6725;48.112;11.604;2023-03-15T13:28:48;95299.63;;;9.22;68.71
13314;BME280;6725;48.112;11.604;2023-03-15T13:31:27;95299.78;;;8.87;68.71
13314;BME280;6725;48.112;11.604;2023-03-15T13:33:55;95301.28;;;8.95;69.18
13314;BME280;6725;48.112;11.604;2023-03-15T13:39:10;95302.72;;;9.28;65.60
13314;BME280;6725;48.112;11.604;2023-03-15T13:41:38;95305.09;;;9.15;67.46
13314;BME280;6725;48.112;11.604;2023-03-15T13:44:14;95316.00;;;9.15;66.62
13314;BME280;6725;48.112;11.604;2023-03-15T13:46:40;95304.34;;;9.15;67.08
13314;BME280;6725;48.112;11.604;2023-03-15T13:49:05;95301.78;;;9.55;66.77
13314;BME280;6725;48.112;11.604;2023-03-15T13:51:35;95303.03;;;9.44;65.78
13314;BME280;6725;48.112;11.604;2023-03-15T13:54:24;95299.63;;;9.22;63.16
13314;BME280;6725;48.112;11.604;2023-03-15T13:57:17;95303.69;;;8.76;65.01
13314;BME280;6725;48.112;11.604;2023-03-15T13:59:50;95304.09;;;8.78;67.16